Flight Track Log - Related Links

Times and Time Zones

All times are in EDT time to prevent confusion due to time zone crossing. See the N894KS flight status page for this flight to view local times or setup timezone preferences in your user account.

Time Position Orientation Groundspeed Altitude Reporting Facility
EDT Latitude Longitude Course Direction KTS MPH feet Rate Location/Type
Mon 11:56:39 AM 33.1167 -117.3667 265° West 208 239 4,500  Level Southern California TRACON
Mon 11:57:44 AM 33.1117 -117.4344 265° West 217 250 6,000 1,890 Climbing Los Angeles Center
Mon 11:58:46 AM 33.0956 -117.5358 259° West 248 285 8,500 2,613 Climbing Los Angeles Center
Mon 11:59:48 AM 33.0647 -117.6242 247° West 281 323 11,400 2,544 Climbing Los Angeles Center
Mon 12:00:51 PM 33.0936 -117.7050 293° West 294 338 13,800 1,536 Climbing Los Angeles Center
Mon 12:01:53 PM 33.1642 -117.7550 329° Northwest 293 337 14,600 726 Climbing Los Angeles Center
Mon 12:02:55 PM 33.2272 -117.8264 317° Northwest 314 361 15,300 1,113 Climbing Los Angeles Center
Mon 12:03:57 PM 33.2911 -117.8992 316° Northwest 314 361 16,900 1,839 Climbing Los Angeles Center
Mon 12:04:59 PM 33.3764 -117.9861 320° Northwest 331 381 19,100 2,064 Climbing Los Angeles Center
Mon 12:06:02 PM 33.4500 -118.0581 321° Northwest 336 387 21,200 1,728 Climbing Los Angeles Center
Mon 12:07:04 PM 33.5414 -118.1083 335° Northwest 357 411 22,700 1,355 Climbing Los Angeles Center
Mon 12:08:06 PM 33.6342 -118.1622 334° Northwest 367 422 24,000 629 Climbing Los Angeles Center
Mon 12:09:08 PM 33.7550 -118.2314 335° Northwest 405 466 24,000  Level Los Angeles Center
Mon 12:10:10 PM 33.8578 -118.2919 334° Northwest 421 484 24,000  Level Los Angeles Center
Mon 12:11:12 PM 33.9594 -118.3539 333° Northwest 420 483 24,000  Level Los Angeles Center
Mon 12:12:15 PM 34.0694 -118.3967 342° North 420 483 24,000 -144 Level Los Angeles Center
Mon 12:13:17 PM 34.2058 -118.4350 347° North 420 483 23,700 -1,065 Descending Los Angeles Center
Mon 12:14:19 PM 34.3189 -118.4697 346° North 420 483 21,800 -1,790 Descending Los Angeles Center
Mon 12:15:21 PM 34.4264 -118.5006 347° North 397 457 20,000 -1,742 Descending Los Angeles Center
Mon 12:16:23 PM 34.5325 -118.5317 346° North 393 452 18,200 -1,645 Descending Los Angeles Center
Mon 12:17:25 PM 34.6378 -118.5633 346° North 388 447 16,600 -1,597 Descending Los Angeles Center
Mon 12:18:27 PM 34.7281 -118.6203 333° Northwest 370 426 14,900 -1,728 Descending Los Angeles Center
Mon 12:19:30 PM 34.8169 -118.7158 319° Northwest 355 409 13,000 -1,344 Descending Los Angeles Center
Mon 12:20:32 PM 34.8897 -118.7886 321° Northwest 342 394 12,100 -532 Descending Los Angeles Center
Mon 12:21:34 PM 34.9681 -118.8383 333° Northwest 339 390 11,900 -823 Descending Los Angeles Center
Mon 12:22:36 PM 35.0603 -118.8658 346° North 345 397 10,400 -2,139 Descending Los Angeles Center
Mon 12:23:29 PM 35.1386 -118.9025 339° North 279 321 7,800 -2,177 Descending Los Angeles Center
Mon 12:24:40 PM 35.2181 -118.9181 351° North 287 330 5,900 -1,525 Descending Los Angeles Center
Mon 12:27:29 PM 35.3878 -119.0025 321° Northwest 163 188 1,700 -1,491 Descending Los Angeles Center
Mon 12:29:00 PM 35.4333 -119.0500 321° Northwest  Level FlightAware Approximate
Mon 12:36:00 PM 35.4339 -119.0577 321° Northwest  Level Estimated
Mon 12:37:00 PM 35.4333 -119.0500 321° Northwest  Level FlightAware Approximate
Mon 12:38:00 PM 35.4339 -119.0577 321° Northwest  Level Estimated
Mon 12:39:00 PM 35.4333 -119.0500 321° Northwest  Level FlightAware Approximate

Login

Don't have an account? Register now (free) for customized features, flight alerts, and more!